Time,TemperatureF,DewpointF,PressureIn,WindDirection,WindDirectionDegrees,WindSpeedMPH,WindSpeedGustMPH,Humidity,HourlyPrecipIn,Conditions,Clouds,dailyrainin,SoftwareType,DateUTC
2013-08-10 00:04:00,72.1,71.8,29.86,West,270,0.0,-999.0,99,-99.99,,,0.00,Acu-Link.com,2013-08-10 04:04:00,
2013-08-10 00:20:00,72.1,71.8,29.87,ENE,67,0.0,-999.0,99,-99.99,,,0.00,Acu-Link.com,2013-08-10 04:20:00,
2013-08-10 00:35:00,71.6,71.3,29.86,West,270,0.0,-999.0,99,-99.99,,,0.00,Acu-Link.com,2013-08-10 04:35:00,
2013-08-10 00:50:00,71.4,71.1,29.86,West,270,0.0,-999.0,99,-99.99,,,0.00,Acu-Link.com,2013-08-10 04:50:00,
2013-08-10 01:05:00,71.1,70.8,29.86,West,270,0.0,-999.0,99,-99.99,,,0.00,Acu-Link.com,2013-08-10 05:05:00,
2013-08-10 01:20:00,70.9,70.6,29.86,SW,225,0.0,-999.0,99,-99.99,,,0.00,Acu-Link.com,2013-08-10 05:20:00,
2013-08-10 01:35:00,70.7,70.4,29.86,West,270,0.0,-999.0,99,-99.99,,,0.00,Acu-Link.com,2013-08-10 05:35:00,
2013-08-10 01:50:00,70.5,70.2,29.85,West,270,0.0,-999.0,99,-99.99,,,0.00,Acu-Link.com,2013-08-10 05:50:00,
2013-08-10 02:05:00,70.3,70.0,29.86,West,270,0.0,-999.0,99,-99.99,,,0.00,Acu-Link.com,2013-08-10 06:05:00,
2013-08-10 02:20:00,70.2,69.9,29.86,West,270,0.0,-999.0,99,-99.99,,,0.00,Acu-Link.com,2013-08-10 06:20:00,
2013-08-10 02:36:00,70.0,69.7,29.86,SW,225,0.0,-999.0,99,-99.99,,,0.00,Acu-Link.com,2013-08-10 06:36:00,
2013-08-10 02:51:00,70.0,69.7,29.86,SW,225,0.0,-999.0,99,-99.99,,,0.00,Acu-Link.com,2013-08-10 06:51:00,
2013-08-10 03:06:00,69.8,69.5,29.86,WSW,247,0.0,-999.0,99,-99.99,,,0.00,Acu-Link.com,2013-08-10 07:06:00,
2013-08-10 03:21:00,69.6,69.3,29.86,West,270,0.0,-999.0,99,-99.99,,,0.00,Acu-Link.com,2013-08-10 07:21:00,
2013-08-10 03:36:00,69.4,69.1,29.86,West,270,0.0,-999.0,99,-99.99,,,0.00,Acu-Link.com,2013-08-10 07:36:00,
2013-08-10 03:51:00,69.4,69.1,29.86,WSW,247,0.0,-999.0,99,-99.99,,,0.00,Acu-Link.com,2013-08-10 07:51:00,
2013-08-10 04:08:00,69.3,69.0,29.86,West,270,0.0,-999.0,99,-99.99,,,0.00,Acu-Link.com,2013-08-10 08:08:00,
2013-08-10 04:23:00,69.3,69.0,29.86,SSW,202,0.0,-999.0,99,-99.99,,,0.00,Acu-Link.com,2013-08-10 08:23:00,
2013-08-10 04:38:00,69.3,69.0,29.87,NE,45,0.0,-999.0,99,-99.99,,,0.00,Acu-Link.com,2013-08-10 08:38:00,
2013-08-10 04:53:00,69.1,68.8,29.87,West,270,0.0,-999.0,99,-99.99,,,0.00,Acu-Link.com,2013-08-10 08:53:00,
2013-08-10 05:09:00,68.9,68.6,29.87,West,270,0.0,-999.0,99,-99.99,,,0.00,Acu-Link.com,2013-08-10 09:09:00,
2013-08-10 05:24:00,68.9,68.6,29.86,SW,225,0.0,-999.0,99,-99.99,,,0.00,Acu-Link.com,2013-08-10 09:24:00,
2013-08-10 05:39:00,68.7,68.4,29.87,West,270,0.0,-999.0,99,-99.99,,,0.00,Acu-Link.com,2013-08-10 09:39:00,
2013-08-10 05:54:00,68.7,68.4,29.87,West,270,0.0,-999.0,99,-99.99,,,0.00,Acu-Link.com,2013-08-10 09:54:00,
2013-08-10 06:09:00,68.7,68.4,29.87,East,90,0.0,-999.0,99,-99.99,,,0.00,Acu-Link.com,2013-08-10 10:09:00,
2013-08-10 06:24:00,68.7,68.4,29.87,South,180,0.0,-999.0,99,-99.99,,,0.00,Acu-Link.com,2013-08-10 10:24:00,
2013-08-10 06:39:00,68.7,68.4,29.89,WSW,247,0.0,-999.0,99,-99.99,,,0.00,Acu-Link.com,2013-08-10 10:39:00,
2013-08-10 06:55:00,68.7,68.4,29.88,West,270,0.0,-999.0,99,-99.99,,,0.00,Acu-Link.com,2013-08-10 10:55:00,
2013-08-10 07:10:00,68.9,68.6,29.89,SSW,202,0.0,-999.0,99,-99.99,,,0.00,Acu-Link.com,2013-08-10 11:10:00,
2013-08-10 07:25:00,69.3,69.0,29.89,WNW,292,0.0,-999.0,99,-99.99,,,0.00,Acu-Link.com,2013-08-10 11:25:00,
2013-08-10 07:40:00,69.8,69.5,29.89,East,90,0.0,-999.0,99,-99.99,,,0.00,Acu-Link.com,2013-08-10 11:40:00,
2013-08-10 07:55:00,70.3,70.0,29.90,NNW,337,0.0,-999.0,99,-99.99,,,0.00,Acu-Link.com,2013-08-10 11:55:00,
2013-08-10 08:10:00,71.1,70.8,29.91,West,270,0.0,-999.0,99,-99.99,,,0.01,Acu-Link.com,2013-08-10 12:10:00,
2013-08-10 08:26:00,72.0,71.7,29.90,WNW,292,0.0,-999.0,99,-99.99,,,0.01,Acu-Link.com,2013-08-10 12:26:00,
2013-08-10 08:41:00,73.4,73.1,29.89,North,0,0.0,-999.0,99,-99.99,,,0.01,Acu-Link.com,2013-08-10 12:41:00,
2013-08-10 08:56:00,74.8,74.5,29.89,East,90,0.0,-999.0,99,-99.99,,,0.01,Acu-Link.com,2013-08-10 12:56:00,
2013-08-10 09:11:00,80.2,78.3,29.89,SW,225,0.0,-999.0,94,-99.99,,,0.01,Acu-Link.com,2013-08-10 13:11:00,
2013-08-10 09:26:00,80.4,77.5,29.89,SSE,157,0.0,-999.0,91,-99.99,,,0.01,Acu-Link.com,2013-08-10 13:26:00,
2013-08-10 09:41:00,80.1,77.9,29.89,SSW,202,0.0,-999.0,93,-99.99,,,0.01,Acu-Link.com,2013-08-10 13:41:00,
2013-08-10 09:56:00,83.5,78.5,29.89,SSE,157,0.0,-999.0,85,-99.99,,,0.01,Acu-Link.com,2013-08-10 13:56:00,
2013-08-10 10:12:00,86.9,77.6,29.89,WSW,247,2.2,-999.0,74,-99.99,,,0.01,Acu-Link.com,2013-08-10 14:12:00,
2013-08-10 10:27:00,88.0,78.6,29.90,NE,45,0.0,-999.0,74,-99.99,,,0.01,Acu-Link.com,2013-08-10 14:27:00,
2013-08-10 10:42:00,87.8,77.6,29.88,South,180,0.0,-999.0,72,-99.99,,,0.01,Acu-Link.com,2013-08-10 14:42:00,
2013-08-10 10:57:00,88.3,77.7,29.88,South,180,1.7,-999.0,71,-99.99,,,0.01,Acu-Link.com,2013-08-10 14:57:00,
2013-08-10 11:12:00,92.1,78.6,29.88,East,90,1.1,-999.0,65,-99.99,,,0.01,Acu-Link.com,2013-08-10 15:12:00,
2013-08-10 11:27:00,92.8,78.3,29.87,West,270,2.2,-999.0,63,-99.99,,,0.01,Acu-Link.com,2013-08-10 15:27:00,
2013-08-10 11:42:00,93.6,79.5,29.86,NW,315,2.7,-999.0,64,-99.99,,,0.01,Acu-Link.com,2013-08-10 15:42:00,
2013-08-10 11:57:00,93.0,78.5,29.86,NW,315,0.0,-999.0,63,-99.99,,,0.01,Acu-Link.com,2013-08-10 15:57:00,
2013-08-10 12:12:00,90.5,77.1,29.86,SSE,157,0.0,-999.0,65,-99.99,,,0.01,Acu-Link.com,2013-08-10 16:12:00,
2013-08-10 12:28:00,95.5,78.3,29.86,SW,225,0.0,-999.0,58,-99.99,,,0.01,Acu-Link.com,2013-08-10 16:28:00,
2013-08-10 12:43:00,97.0,79.2,29.83,SSE,157,1.1,-999.0,57,-99.99,,,0.01,Acu-Link.com,2013-08-10 16:43:00,
2013-08-10 12:58:00,98.6,77.3,29.82,SW,225,0.0,-999.0,51,-99.99,,,0.01,Acu-Link.com,2013-08-10 16:58:00,
2013-08-10 13:13:00,97.2,78.8,29.83,SSW,202,1.1,-999.0,56,-99.99,,,0.01,Acu-Link.com,2013-08-10 17:13:00,
2013-08-10 13:28:00,95.4,77.2,29.82,SW,225,3.2,-999.0,56,-99.99,,,0.01,Acu-Link.com,2013-08-10 17:28:00,
2013-08-10 13:43:00,95.5,77.3,29.82,South,180,0.0,-999.0,56,-99.99,,,0.01,Acu-Link.com,2013-08-10 17:43:00,
2013-08-10 13:58:00,99.9,77.3,29.81,WNW,292,3.2,-999.0,49,-99.99,,,0.01,Acu-Link.com,2013-08-10 17:58:00,
2013-08-10 14:13:00,97.0,75.8,29.81,ESE,112,1.1,-999.0,51,-99.99,,,0.01,Acu-Link.com,2013-08-10 18:13:00,
2013-08-10 14:28:00,96.6,77.7,29.80,WNW,292,0.0,-999.0,55,-99.99,,,0.01,Acu-Link.com,2013-08-10 18:28:00,
2013-08-10 14:44:00,93.4,77.9,29.82,SSW,202,0.0,-999.0,61,-99.99,,,0.01,Acu-Link.com,2013-08-10 18:44:00,
2013-08-10 14:59:00,91.8,77.8,29.83,SW,225,0.0,-999.0,64,-99.99,,,0.01,Acu-Link.com,2013-08-10 18:59:00,
2013-08-10 15:14:00,84.9,76.9,29.84,SE,135,1.7,-999.0,77,-99.99,,,0.01,Acu-Link.com,2013-08-10 19:14:00,
2013-08-10 15:48:00,81.0,76.1,29.84,WSW,247,0.0,-999.0,85,-99.99,,,0.03,Acu-Link.com,2013-08-10 19:48:00,
2013-08-10 16:04:00,81.0,76.1,29.85,West,270,0.0,-999.0,85,-99.99,,,0.03,Acu-Link.com,2013-08-10 20:04:00,
2013-08-10 16:19:00,76.8,74.0,29.87,East,90,2.2,-999.0,91,-99.99,,,0.03,Acu-Link.com,2013-08-10 20:19:00,
2013-08-10 16:35:00,76.6,73.4,29.88,East,90,2.2,-999.0,90,-99.99,,,0.04,Acu-Link.com,2013-08-10 20:35:00,
2013-08-10 16:51:00,78.4,74.5,29.86,East,90,0.0,-999.0,88,-99.99,,,0.04,Acu-Link.com,2013-08-10 20:51:00,
2013-08-10 17:12:00,80.8,75.1,29.85,East,90,2.7,-999.0,83,-99.99,,,0.04,Acu-Link.com,2013-08-10 21:12:00,
2013-08-10 17:27:00,82.0,74.4,29.86,SE,135,1.1,-999.0,78,-99.99,,,0.04,Acu-Link.com,2013-08-10 21:27:00,
2013-08-10 17:43:00,81.9,73.2,29.86,WSW,247,0.0,-999.0,75,-99.99,,,0.04,Acu-Link.com,2013-08-10 21:43:00,
2013-08-10 17:58:00,81.1,73.2,29.86,West,270,0.0,-999.0,77,-99.99,,,0.04,Acu-Link.com,2013-08-10 21:58:00,
2013-08-10 18:14:00,80.6,73.5,29.88,SSW,202,0.0,-999.0,79,-99.99,,,0.08,Acu-Link.com,2013-08-10 22:14:00,
2013-08-10 18:44:00,75.6,72.8,29.89,SSW,202,0.0,-999.0,91,-99.99,,,0.08,Acu-Link.com,2013-08-10 22:44:00,
2013-08-10 19:43:00,74.3,73.1,29.88,WNW,292,0.0,-999.0,96,-99.99,,,0.20,Acu-Link.com,2013-08-10 23:43:00,
2013-08-10 20:08:00,74.3,73.4,29.88,ESE,112,1.7,-999.0,97,-99.99,,,0.21,Acu-Link.com,2013-08-11 00:08:00,
2013-08-10 20:28:00,74.3,73.4,29.88,East,90,0.0,-999.0,97,-99.99,,,0.21,Acu-Link.com,2013-08-11 00:28:00,
2013-08-10 21:04:00,72.7,72.4,29.88,East,90,0.0,-999.0,99,-99.99,,,0.21,Acu-Link.com,2013-08-11 01:04:00,
2013-08-10 21:23:00,72.1,71.8,29.89,South,180,0.0,-999.0,99,-99.99,,,0.21,Acu-Link.com,2013-08-11 01:23:00,
2013-08-10 21:38:00,72.0,71.7,29.89,SSE,157,2.2,-999.0,99,-99.99,,,0.22,Acu-Link.com,2013-08-11 01:38:00,
2013-08-10 21:54:00,71.6,71.3,29.90,WSW,247,0.0,-999.0,99,-99.99,,,0.22,Acu-Link.com,2013-08-11 01:54:00,
2013-08-10 22:22:00,71.1,70.8,29.90,WNW,292,0.0,-999.0,99,-99.99,,,0.22,Acu-Link.com,2013-08-11 02:22:00,
2013-08-10 22:54:00,71.1,70.8,29.91,West,270,0.0,-999.0,99,-99.99,,,0.22,Acu-Link.com,2013-08-11 02:54:00,
2013-08-10 23:11:00,70.9,70.6,29.93,SW,225,0.0,-999.0,99,-99.99,,,0.22,Acu-Link.com,2013-08-11 03:11:00,
2013-08-10 23:26:00,70.5,70.2,29.91,SSE,157,0.0,-999.0,99,-99.99,,,0.22,Acu-Link.com,2013-08-11 03:26:00,